Time;durP1;ratioP1;P1;durP2;ratioP2;P2;SDS_P1;SDS_P2;PMS_P1;PMS_P2;Temp;Humidity;BMP_temperature;BMP_pressure;BME280_temperature;BME280_humidity;BME280_pressure;Samples;Min_cycle;Max_cycle;Signal;HPM_P1;HPM_P2
2022/07/30 00:00:20;;;;;;;5.55;4.53;;;;;;;18.64;61.96;100251.78;5091579;28;20473;-75
2022/07/30 00:02:47;;;;;;;8.68;3.47;;;;;;;18.62;61.56;100246.53;5092565;28;20027;-75
2022/07/30 00:05:13;;;;;;;5.85;3.42;;;;;;;18.60;61.91;100254.22;5097414;28;20030;-76
2022/07/30 00:07:38;;;;;;;6.80;3.60;;;;;;;18.59;61.31;100246.88;5098154;28;20108;-75
2022/07/30 00:10:04;;;;;;;8.15;4.93;;;;;;;18.60;61.19;100248.44;5097365;28;20060;-75
2022/07/30 00:12:30;;;;;;;6.72;3.70;;;;;;;18.58;60.91;100248.19;5097993;28;20028;-76
2022/07/30 00:14:55;;;;;;;5.63;2.75;;;;;;;18.61;60.91;100244.22;5097220;28;20080;-76
2022/07/30 00:17:20;;;;;;;4.07;2.58;;;;;;;18.62;60.33;100232.06;5095652;28;20028;-77
2022/07/30 00:19:46;;;;;;;4.50;2.80;;;;;;;18.64;60.43;100237.31;5095351;28;20027;-76
2022/07/30 00:22:11;;;;;;;6.45;3.25;;;;;;;18.63;59.75;100232.84;5096795;28;20024;-76
2022/07/30 00:24:37;;;;;;;3.30;2.70;;;;;;;18.62;60.01;100234.97;5095468;28;20019;-76
2022/07/30 00:27:02;;;;;;;4.22;2.72;;;;;;;18.61;59.66;100227.63;5097010;28;20031;-76
2022/07/30 00:29:28;;;;;;;5.95;2.75;;;;;;;18.58;59.52;100225.03;5096546;28;20016;-76
2022/07/30 00:31:54;;;;;;;4.43;2.35;;;;;;;18.60;59.02;100233.97;5096795;28;20459;-76
2022/07/30 00:34:19;;;;;;;4.43;2.20;;;;;;;18.59;58.99;100233.19;5096573;28;20449;-76
2022/07/30 00:36:45;;;;;;;3.03;2.15;;;;;;;18.57;59.34;100238.72;5096445;28;20055;-76
2022/07/30 00:39:10;;;;;;;3.53;2.70;;;;;;;18.57;59.14;100237.97;5096617;28;20055;-76
2022/07/30 00:41:52;;;;;;;4.35;2.15;;;;;;;18.53;59.05;100232.47;5096457;28;20472;-75
2022/07/30 00:44:17;;;;;;;4.07;2.60;;;;;;;18.51;58.68;100223.59;5096531;28;20067;-75
2022/07/30 00:46:43;;;;;;;4.65;2.67;;;;;;;18.55;58.67;100221.16;5096670;28;20024;-77
2022/07/30 00:49:08;;;;;;;5.45;2.17;;;;;;;18.54;59.18;100215.91;5096758;28;20461;-76
2022/07/30 00:51:33;;;;;;;3.58;2.22;;;;;;;18.56;58.78;100222.72;5096682;28;20031;-76
2022/07/30 00:53:59;;;;;;;2.45;1.85;;;;;;;18.55;58.74;100221.16;5096305;28;20034;-75
2022/07/30 00:56:24;;;;;;;3.20;2.22;;;;;;;18.53;58.24;100223.00;5095153;28;20039;-76
2022/07/30 00:58:49;;;;;;;8.80;1.70;;;;;;;18.52;58.05;100221.47;5094839;28;20031;-76
2022/07/30 01:01:15;;;;;;;4.63;2.30;;;;;;;18.53;58.51;100218.00;5094812;28;20097;-76
2022/07/30 01:03:40;;;;;;;3.85;2.40;;;;;;;18.51;58.13;100214.91;5095899;28;20377;-76
2022/07/30 01:06:06;;;;;;;2.47;2.15;;;;;;;18.52;58.28;100209.91;5077697;28;20028;-75
2022/07/30 01:08:31;;;;;;;2.95;2.17;;;;;;;18.52;58.33;100212.78;5095691;28;20027;-75
2022/07/30 01:10:56;;;;;;;4.38;2.30;;;;;;;18.53;58.37;100208.53;5095983;28;20354;-76
2022/07/30 01:13:22;;;;;;;4.18;2.10;;;;;;;18.52;58.39;100199.06;5094699;28;20024;-76
2022/07/30 01:15:47;;;;;;;3.95;1.92;;;;;;;18.55;58.26;100208.78;5079393;28;20027;-75
2022/07/30 01:18:14;;;;;;;3.20;2.38;;;;;;;18.55;58.26;100206.66;5095193;28;20346;-76
2022/07/30 01:20:48;;;;;;;2.45;1.92;;;;;;;18.58;58.26;100201.88;5076192;28;20435;-76
2022/07/30 01:23:25;;;;;;;2.42;2.22;;;;;;;18.61;57.85;100207.38;5076845;28;20032;-76
2022/07/30 01:25:57;;;;;;;3.80;1.95;;;;;;;18.63;57.85;100209.69;5095982;28;20403;-76
2022/07/30 01:28:27;;;;;;;;;;;;;;;18.63;57.65;100206.78;5095758;28;20562;-76
2022/07/30 01:30:53;;;;;;;2.30;1.73;;;;;;;18.64;57.79;100208.38;5096471;28;19912;-76
2022/07/30 01:33:21;;;;;;;2.08;1.65;;;;;;;18.65;57.96;100207.81;5095471;28;20035;-76
2022/07/30 01:35:47;;;;;;;2.05;1.52;;;;;;;18.67;57.52;100202.25;5093325;28;20027;-76
2022/07/30 01:38:15;;;;;;;3.63;2.00;;;;;;;18.68;57.51;100198.03;5094275;28;20065;-75
2022/07/30 01:40:42;;;;;;;6.80;2.53;;;;;;;18.67;57.13;100187.00;5094006;28;20039;-76
2022/07/30 01:43:07;;;;;;;4.00;1.83;;;;;;;18.69;57.31;100190.91;5093933;28;20091;-77
2022/07/30 01:45:33;;;;;;;3.58;1.95;;;;;;;18.70;57.40;100197.47;5076203;28;20031;-76
2022/07/30 01:48:01;;;;;;;4.15;2.50;;;;;;;18.73;57.08;100201.38;5095026;28;20028;-76
2022/07/30 01:50:27;;;;;;;2.28;2.00;;;;;;;18.72;57.44;100194.03;5094915;28;20487;-76
2022/07/30 01:52:54;;;;;;;7.40;2.13;;;;;;;18.72;57.35;100182.47;5093841;28;20024;-77
2022/07/30 01:55:24;;;;;;;5.13;1.75;;;;;;;18.70;57.38;100180.09;5092325;28;20027;-76
2022/07/30 01:57:50;;;;;;;2.72;1.83;;;;;;;18.70;57.30;100174.31;5093711;28;20057;-75
2022/07/30 02:00:16;;;;;;;4.55;3.03;;;;;;;18.72;57.05;100180.34;5094858;28;20491;-74
2022/07/30 02:02:42;;;;;;;2.00;1.80;;;;;;;18.70;57.38;100183.00;5094700;28;20028;-76
2022/07/30 02:05:08;;;;;;;5.03;1.77;;;;;;;18.67;57.30;100179.09;5093970;28;20024;-75
2022/07/30 02:07:59;;;;;;;2.83;1.92;;;;;;;18.66;57.55;100176.75;5093789;28;20019;-75
2022/07/30 02:10:43;;;;;;;2.78;1.88;;;;;;;18.64;57.49;100186.00;5094305;28;20480;-76
2022/07/30 02:13:10;;;;;;;2.53;1.92;;;;;;;18.52;57.42;100175.16;5093352;28;20046;-75
2022/07/30 02:15:47;;;;;;;3.42;2.30;;;;;;;18.61;57.37;100184.22;5093389;28;20026;-76
2022/07/30 02:18:20;;;;;;;4.10;1.80;;;;;;;18.64;57.80;100183.09;5093879;28;20027;-77
2022/07/30 02:20:50;;;;;;;2.13;2.00;;;;;;;18.65;57.43;100175.19;5093197;28;20485;-76
2022/07/30 02:23:17;;;;;;;3.67;1.73;;;;;;;18.66;57.27;100179.66;5094350;28;20028;-76
2022/07/30 02:25:46;;;;;;;3.03;2.28;;;;;;;18.68;57.40;100180.66;5092794;28;20070;-75
2022/07/30 02:28:13;;;;;;;3.85;2.08;;;;;;;18.69;57.39;100181.44;5093780;28;20028;-76
2022/07/30 02:30:54;;;;;;;7.03;2.10;;;;;;;18.70;57.27;100183.00;5093237;28;20020;-76
2022/07/30 02:33:27;;;;;;;4.47;2.20;;;;;;;18.68;57.40;100165.41;5093661;28;20111;-75
2022/07/30 02:35:54;;;;;;;4.85;2.42;;;;;;;18.72;57.61;100182.47;5092971;28;20777;-75
2022/07/30 02:38:20;;;;;;;3.42;2.08;;;;;;;18.71;57.67;100175.88;5093370;28;20027;-76
2022/07/30 02:40:47;;;;;;;2.97;2.30;;;;;;;18.71;57.72;100169.31;5093124;28;20073;-76
2022/07/30 02:43:16;;;;;;;4.35;2.17;;;;;;;18.72;57.82;100173.78;5094042;28;20484;-75
2022/07/30 02:45:43;;;;;;;3.28;2.08;;;;;;;18.69;57.45;100167.75;5075978;28;20028;-75
2022/07/30 02:48:09;;;;;;;3.90;2.65;;;;;;;18.65;57.43;100152.81;5094021;28;20082;-75
2022/07/30 02:50:35;;;;;;;2.45;2.03;;;;;;;18.68;57.79;100153.81;5092980;28;20024;-76
2022/07/30 02:53:02;;;;;;;3.50;2.03;;;;;;;18.66;57.92;100154.38;5092755;28;20430;-75
2022/07/30 02:55:29;;;;;;;8.55;2.35;;;;;;;18.63;57.74;100149.69;5092922;28;20039;-75
2022/07/30 02:57:55;;;;;;;3.03;1.80;;;;;;;18.63;57.78;100134.44;5092778;28;20024;-75
2022/07/30 03:00:22;;;;;;;3.03;2.08;;;;;;;18.62;57.71;100142.31;5092593;28;20108;-75
2022/07/30 03:02:48;;;;;;;3.28;2.00;;;;;;;18.60;58.12;100132.66;5092609;28;20030;-75
2022/07/30 03:05:14;;;;;;;2.30;1.75;;;;;;;18.59;58.35;100148.44;5092549;28;20016;-75
2022/07/30 03:07:40;;;;;;;3.20;1.90;;;;;;;18.57;58.19;100145.34;5103870;28;20024;-76
2022/07/30 03:10:06;;;;;;;4.90;2.28;;;;;;;18.56;58.23;100144.56;5088227;28;20098;-75
2022/07/30 03:12:33;;;;;;;4.13;2.17;;;;;;;18.55;58.90;100150.91;5100453;28;20024;-74
2022/07/30 03:14:59;;;;;;;2.45;2.00;;;;;;;18.51;58.80;100150.44;5105956;28;20024;-75
2022/07/30 03:17:26;;;;;;;3.88;1.80;;;;;;;18.51;58.52;100156.25;5106407;28;20047;-74
2022/07/30 03:19:54;;;;;;;5.97;1.92;;;;;;;18.50;58.58;100149.66;5076583;28;20098;-75
2022/07/30 03:22:20;;;;;;;3.70;1.85;;;;;;;18.48;58.90;100137.84;5096132;28;20031;-75
2022/07/30 03:24:48;;;;;;;3.17;1.90;;;;;;;18.47;58.62;100139.19;5079840;28;20465;-75
2022/07/30 03:27:16;;;;;;;2.30;1.80;;;;;;;18.46;58.82;100136.84;5096794;28;20036;-75
2022/07/30 03:29:44;;;;;;;2.40;1.73;;;;;;;18.49;59.15;100142.31;5094577;28;20038;-76
2022/07/30 03:32:11;;;;;;;3.35;2.25;;;;;;;18.49;58.55;100135.75;5099516;28;20022;-76
2022/07/30 03:34:45;;;;;;;4.78;2.15;;;;;;;18.50;59.17;100137.31;5078071;28;20400;-74
2022/07/30 03:37:26;;;;;;;8.98;2.40;;;;;;;18.48;59.00;100129.16;5097805;28;20032;-74
2022/07/30 03:39:52;;;;;;;2.15;1.95;;;;;;;18.47;58.88;100139.19;5099289;28;20028;-75
2022/07/30 03:42:20;;;;;;;3.75;2.10;;;;;;;18.48;59.47;100134.97;5082534;28;20036;-75
2022/07/30 03:44:54;;;;;;;3.90;1.92;;;;;;;18.49;59.09;100136.53;5087128;28;20047;-75
2022/07/30 03:47:21;;;;;;;3.42;2.15;;;;;;;18.52;58.93;100138.28;5103602;28;20027;-75
2022/07/30 03:49:48;;;;;;;1.92;1.65;;;;;;;18.52;59.39;100129.63;5102080;28;20084;-75
2022/07/30 03:52:15;;;;;;;4.10;2.08;;;;;;;18.55;58.91;100125.63;5102029;28;20056;-76
2022/07/30 03:54:49;;;;;;;5.88;2.10;;;;;;;18.59;59.04;100122.41;5098030;28;20032;-74
2022/07/30 03:57:16;;;;;;;2.40;2.03;;;;;;;18.60;58.86;100126.88;5099990;28;20023;-76
2022/07/30 03:59:42;;;;;;;3.83;2.28;;;;;;;18.64;58.80;100131.00;5070209;28;20040;-75
2022/07/30 04:02:10;;;;;;;2.40;1.77;;;;;;;18.64;58.79;100122.31;5105626;28;20071;-75
2022/07/30 04:04:41;;;;;;;2.28;2.05;;;;;;;18.67;58.32;100118.28;5105292;28;20031;-75
2022/07/30 04:07:07;;;;;;;3.22;2.17;;;;;;;18.68;58.34;100121.97;5104389;28;20115;-75
2022/07/30 04:09:34;;;;;;;5.13;2.42;;;;;;;18.69;58.55;100123.53;5108998;28;20027;-75
2022/07/30 04:12:00;;;;;;;3.85;2.10;;;;;;;18.69;58.45;100132.22;5093896;28;20161;-75
2022/07/30 04:14:48;;;;;;;2.67;1.50;;;;;;;18.75;58.17;100117.66;5096959;28;20028;-73
2022/07/30 04:17:21;;;;;;;2.88;1.88;;;;;;;18.78;58.32;100110.72;5095532;28;20551;-74
2022/07/30 04:19:53;;;;;;;6.32;2.25;;;;;;;18.80;57.97;100108.84;5078324;28;20536;-73
2022/07/30 04:22:31;;;;;;;12.73;2.13;;;;;;;18.85;58.44;100110.88;5095540;28;20051;-74
2022/07/30 04:24:59;;;;;;;4.47;1.92;;;;;;;18.89;57.96;100111.31;5095634;28;20016;-74
2022/07/30 04:27:27;;;;;;;4.50;2.15;;;;;;;18.96;57.94;100113.56;5096020;28;20024;-74
2022/07/30 04:29:53;;;;;;;2.78;1.67;;;;;;;19.03;57.31;100112.09;5095611;28;20061;-74
2022/07/30 04:32:19;;;;;;;2.70;2.00;;;;;;;19.06;57.76;100123.34;5078994;28;20026;-74
2022/07/30 04:34:46;;;;;;;4.25;2.00;;;;;;;19.12;57.14;100124.00;5095389;28;20043;-74
2022/07/30 04:37:11;;;;;;;4.35;2.10;;;;;;;19.20;57.25;100132.84;5061928;28;20059;-74
2022/07/30 04:39:37;;;;;;;4.40;2.35;;;;;;;19.26;56.92;100127.72;5096825;28;20093;-74
2022/07/30 04:42:02;;;;;;;2.83;1.75;;;;;;;19.33;56.75;100132.03;5078462;28;20059;-74
2022/07/30 04:44:28;;;;;;;3.33;1.80;;;;;;;19.38;56.74;100136.94;5096543;28;20484;-74
2022/07/30 04:46:54;;;;;;;3.00;1.98;;;;;;;19.45;56.48;100124.69;5094039;28;20393;-73
2022/07/30 04:49:21;;;;;;;5.55;1.75;;;;;;;19.52;56.63;100136.38;5094316;28;20431;-74
2022/07/30 04:51:48;;;;;;;5.85;1.92;;;;;;;19.61;56.15;100146.72;5078226;28;20115;-74
2022/07/30 04:54:13;;;;;;;3.25;1.70;;;;;;;19.69;55.90;100141.03;5078486;28;20487;-74
2022/07/30 04:56:47;;;;;;;3.15;1.52;;;;;;;19.78;55.52;100143.44;5095047;28;20028;-74
2022/07/30 04:59:23;;;;;;;4.55;1.63;;;;;;;19.85;55.07;100149.34;5077980;28;20027;-74
2022/07/30 05:01:49;;;;;;;1.90;1.65;;;;;;;19.90;54.83;100138.97;5095084;28;20035;-74
2022/07/30 05:04:15;;;;;;;2.15;1.52;;;;;;;20.00;54.83;100142.19;5061366;28;20396;-75
2022/07/30 05:06:42;;;;;;;2.22;1.58;;;;;;;20.09;54.43;100138.81;5077850;28;20028;-73
2022/07/30 05:09:08;;;;;;;4.10;1.95;;;;;;;20.22;54.06;100139.53;5077844;28;20066;-75
2022/07/30 05:11:36;;;;;;;3.65;2.20;;;;;;;20.34;54.00;100142.94;5094752;28;20055;-73
2022/07/30 05:14:02;;;;;;;3.85;1.80;;;;;;;20.45;53.28;100138.97;5094637;28;20024;-74
2022/07/30 05:16:32;;;;;;;1.90;1.63;;;;;;;20.55;53.30;100146.59;5097263;28;20098;-76
2022/07/30 05:18:58;;;;;;;2.80;1.60;;;;;;;20.67;52.76;100150.00;5095970;28;20027;-74
2022/07/30 05:21:24;;;;;;;2.88;1.80;;;;;;;20.77;52.25;100157.69;5094644;28;20085;-74
2022/07/30 05:23:52;;;;;;;2.17;1.67;;;;;;;20.83;52.31;100150.94;5076870;28;20083;-73
2022/07/30 05:26:21;;;;;;;1.73;1.38;;;;;;;20.94;52.08;100153.56;5070710;28;20032;-73
2022/07/30 05:28:47;;;;;;;4.47;2.25;;;;;;;21.02;51.62;100160.19;5094734;28;20042;-74
2022/07/30 05:31:13;;;;;;;2.47;1.60;;;;;;;21.12;51.54;100164.13;5094562;28;20372;-74
2022/07/30 05:33:39;;;;;;;3.97;1.75;;;;;;;21.21;51.49;100158.59;5094767;28;20099;-72
2022/07/30 05:36:06;;;;;;;2.75;1.45;;;;;;;21.28;51.02;100151.28;5093394;28;20038;-72
2022/07/30 05:38:34;;;;;;;5.38;1.60;;;;;;;21.28;50.76;100157.09;5094920;28;20110;-71
2022/07/30 05:40:59;;;;;;;1.85;1.73;;;;;;;21.17;50.89;100160.28;5093986;28;20055;-71
2022/07/30 05:43:33;;;;;;;3.42;1.63;;;;;;;21.08;51.46;100152.09;5095566;28;20456;-71
2022/07/30 05:46:00;;;;;;;4.45;2.10;;;;;;;21.02;51.14;100155.16;5095620;28;20063;-72
2022/07/30 05:48:26;;;;;;;4.22;1.58;;;;;;;21.00;51.05;100154.94;5092892;28;20441;-70
2022/07/30 05:50:55;;;;;;;3.08;1.88;;;;;;;21.05;51.36;100156.91;5075354;28;20040;-73
2022/07/30 05:53:20;;;;;;;3.78;1.40;;;;;;;21.14;51.35;100146.91;5091790;28;20047;-74
2022/07/30 05:55:45;;;;;;;3.95;1.60;;;;;;;21.25;50.82;100143.69;5094345;28;20024;-75
2022/07/30 05:58:12;;;;;;;5.35;2.30;;;;;;;21.39;50.52;100155.97;5093994;28;20047;-74
2022/07/30 06:00:38;;;;;;;3.78;1.85;;;;;;;21.51;50.01;100149.28;5093059;28;20161;-74
2022/07/30 06:03:05;;;;;;;5.70;1.67;;;;;;;21.59;49.63;100141.38;5094688;28;20023;-76
2022/07/30 06:05:32;;;;;;;4.20;1.83;;;;;;;21.65;49.65;100144.09;5095058;28;20032;-74
2022/07/30 06:07:59;;;;;;;1.77;1.50;;;;;;;21.66;49.61;100134.81;5093420;28;20023;-70
2022/07/30 06:10:27;;;;;;;6.50;2.72;;;;;;;21.65;49.78;100135.38;5094169;28;20040;-74
2022/07/30 06:12:53;;;;;;;3.55;1.75;;;;;;;21.68;49.53;100128.44;5070405;28;20040;-68
2022/07/30 06:15:19;;;;;;;4.95;1.60;;;;;;;21.74;49.58;100139.88;5094163;28;20525;-76
2022/07/30 06:17:45;;;;;;;1.80;1.60;;;;;;;21.74;49.31;100125.31;5093053;28;20028;-76
2022/07/30 06:20:15;;;;;;;3.85;2.00;;;;;;;21.64;49.87;100119.28;5094022;28;20047;-76
2022/07/30 06:22:41;;;;;;;3.53;1.70;;;;;;;21.75;49.64;100129.78;5094093;28;20024;-76
2022/07/30 06:25:08;;;;;;;3.50;1.90;;;;;;;21.75;49.43;100133.50;5092715;28;20058;-76
2022/07/30 06:27:35;;;;;;;1.40;1.30;;;;;;;21.75;49.19;100141.44;5092995;28;20024;-77
2022/07/30 06:30:07;;;;;;;3.20;1.52;;;;;;;21.75;49.79;100136.41;5092714;28;20035;-73
2022/07/30 06:32:33;;;;;;;4.50;1.98;;;;;;;21.76;49.81;100134.25;5092752;28;20031;-76
2022/07/30 06:35:00;;;;;;;2.80;1.60;;;;;;;21.76;49.87;100134.25;5092560;28;20023;-76
2022/07/30 06:37:26;;;;;;;2.40;1.60;;;;;;;21.72;49.49;100130.97;5075395;28;20205;-71
2022/07/30 06:39:51;;;;;;;3.17;1.88;;;;;;;21.67;49.58;100133.47;5093452;28;20122;-72
2022/07/30 06:42:17;;;;;;;4.18;1.48;;;;;;;21.64;49.67;100133.81;5093814;28;20468;-72
2022/07/30 06:44:45;;;;;;;6.68;1.70;;;;;;;21.63;49.90;100132.28;5093577;28;20434;-78
2022/07/30 06:47:11;;;;;;;4.00;1.63;;;;;;;21.65;49.53;100132.47;5093620;28;20020;-71
2022/07/30 06:49:36;;;;;;;3.60;1.60;;;;;;;21.64;50.11;100134.59;5092168;28;20419;-74
2022/07/30 06:52:03;;;;;;;1.92;1.70;;;;;;;21.66;49.60;100126.09;5092378;28;20468;-72
2022/07/30 06:54:29;;;;;;;5.45;1.80;;;;;;;21.66;49.80;100122.41;5058677;28;20124;-71
2022/07/30 06:56:57;;;;;;;1.70;1.40;;;;;;;21.72;49.84;100123.00;5092191;28;20055;-69
2022/07/30 06:59:26;;;;;;;8.38;1.75;;;;;;;21.80;50.03;100134.66;5092273;28;20020;-75
2022/07/30 07:01:53;;;;;;;6.13;1.52;;;;;;;21.82;48.95;100115.28;5093511;28;20036;-69
2022/07/30 07:04:20;;;;;;;2.55;1.60;;;;;;;22.09;49.30;100136.88;5092059;28;20473;-69
2022/07/30 07:06:45;;;;;;;3.17;1.50;;;;;;;22.28;48.52;100130.75;5093201;28;20024;-68
2022/07/30 07:09:12;;;;;;;2.83;1.48;;;;;;;22.48;48.01;100144.34;5093280;28;20031;-72
2022/07/30 07:11:38;;;;;;;3.72;1.55;;;;;;;22.67;48.06;100138.16;5090834;28;20435;-70
2022/07/30 07:14:04;;;;;;;3.50;2.17;;;;;;;22.83;47.22;100136.00;5092315;28;20016;-69
2022/07/30 07:16:29;;;;;;;1.85;1.30;;;;;;;22.92;46.71;100133.31;5091663;28;20437;-69
2022/07/30 07:18:55;;;;;;;5.88;1.67;;;;;;;23.05;46.34;100135.25;5091887;28;20485;-68
2022/07/30 07:21:23;;;;;;;5.50;2.10;;;;;;;23.09;46.85;100131.94;5092820;28;20036;-70
2022/07/30 07:23:55;;;;;;;2.72;2.05;;;;;;;23.26;46.37;100137.94;5093362;28;20389;-70
2022/07/30 07:26:23;;;;;;;2.33;1.88;;;;;;;23.39;46.59;100131.88;5093734;28;20031;-70
2022/07/30 07:28:48;;;;;;;5.28;2.05;;;;;;;23.51;45.75;100126.38;5093682;28;20077;-70
2022/07/30 07:31:13;;;;;;;2.55;1.98;;;;;;;23.62;46.03;100131.81;5093842;28;20020;-72
2022/07/30 07:33:39;;;;;;;2.97;1.63;;;;;;;23.72;45.91;100126.91;5092372;28;20385;-73
2022/07/30 07:36:13;;;;;;;2.20;1.60;;;;;;;23.83;44.88;100128.63;5091790;28;20137;-76
2022/07/30 07:38:41;;;;;;;2.58;1.60;;;;;;;23.87;44.87;100129.75;5093703;28;20424;-70
2022/07/30 07:41:07;;;;;;;3.17;1.60;;;;;;;23.96;45.21;100128.34;5092306;28;20085;-70
2022/07/30 07:43:32;;;;;;;3.67;1.90;;;;;;;24.09;44.45;100123.03;5093720;28;20032;-70
2022/07/30 07:46:00;;;;;;;5.15;2.30;;;;;;;24.23;44.21;100122.78;5092420;28;20044;-69
2022/07/30 07:48:26;;;;;;;3.10;1.77;;;;;;;24.34;44.18;100119.41;5092850;28;20214;-70
2022/07/30 07:50:52;;;;;;;4.65;1.80;;;;;;;24.41;43.46;100118.56;5091895;28;20054;-70
2022/07/30 07:53:17;;;;;;;3.67;1.80;;;;;;;24.39;43.97;100112.53;5090424;28;20480;-69
2022/07/30 07:55:42;;;;;;;3.42;1.85;;;;;;;24.33;43.43;100114.91;5091089;28;20032;-71
2022/07/30 07:58:12;;;;;;;2.47;2.08;;;;;;;24.23;43.79;100119.84;5092598;28;20028;-70
2022/07/30 08:00:38;;;;;;;4.47;1.83;;;;;;;24.18;43.51;100125.31;5092097;28;20081;-70
2022/07/30 08:03:03;;;;;;;3.78;2.00;;;;;;;24.10;44.07;100115.06;5090557;28;20123;-74
2022/07/30 08:05:29;;;;;;;2.03;1.73;;;;;;;24.03;44.13;100112.94;5090412;28;20115;-72
2022/07/30 08:07:54;;;;;;;8.02;1.88;;;;;;;23.95;44.39;100112.22;5088800;28;20024;-74
2022/07/30 08:10:19;;;;;;;2.70;1.75;;;;;;;23.85;44.38;100115.00;5088860;28;20457;-72
2022/07/30 08:12:45;;;;;;;5.63;2.35;;;;;;;23.72;44.36;100121.84;5090044;28;20063;-72
2022/07/30 08:15:10;;;;;;;3.60;2.17;;;;;;;23.64;44.87;100103.63;5090168;28;20028;-73
2022/07/30 08:17:43;;;;;;;1.98;1.70;;;;;;;23.67;44.52;100117.00;5072527;28;20052;-73
2022/07/30 08:20:10;;;;;;;1.67;1.58;;;;;;;23.65;44.82;100121.91;5073558;28;20040;-73
2022/07/30 08:22:35;;;;;;;7.22;2.00;;;;;;;23.61;45.24;100122.28;5091899;28;20082;-74
2022/07/30 08:25:01;;;;;;;4.82;1.95;;;;;;;23.45;45.34;100085.78;5094793;28;20027;-72
2022/07/30 08:27:27;;;;;;;4.60;2.05;;;;;;;23.59;45.50;100115.50;5094662;28;20031;-71
2022/07/30 08:29:52;;;;;;;5.53;2.03;;;;;;;23.65;45.05;100116.84;5094414;28;20027;-71
2022/07/30 08:32:17;;;;;;;4.00;1.80;;;;;;;23.69;45.17;100117.22;5095468;28;20048;-77
2022/07/30 08:34:43;;;;;;;7.00;1.75;;;;;;;23.72;45.18;100116.00;5094561;28;20027;-68
2022/07/30 08:37:09;;;;;;;5.32;2.30;;;;;;;23.75;45.10;100114.81;5095510;28;20477;-71
2022/07/30 08:39:34;;;;;;;5.28;2.30;;;;;;;23.92;44.67;100117.09;5095570;28;20064;-68
2022/07/30 08:42:02;;;;;;;2.35;1.88;;;;;;;24.06;44.40;100114.66;5077147;28;20423;-68
2022/07/30 08:44:28;;;;;;;5.28;2.97;;;;;;;24.14;44.64;100094.97;5077386;28;20051;-68
2022/07/30 08:46:55;;;;;;;3.17;1.98;;;;;;;24.51;44.76;100120.22;5077097;28;20465;-69
2022/07/30 08:49:21;;;;;;;3.25;1.60;;;;;;;24.85;43.80;100119.53;5094012;28;20024;-67
2022/07/30 08:51:50;;;;;;;2.28;1.90;;;;;;;25.20;43.33;100120.41;5095302;28;20149;-68
2022/07/30 08:54:18;;;;;;;6.43;2.10;;;;;;;25.42;42.72;100119.38;5095436;28;20032;-67
2022/07/30 08:56:44;;;;;;;5.53;1.70;;;;;;;25.59;42.53;100117.84;5077095;28;20019;-67
2022/07/30 08:59:10;;;;;;;4.97;1.88;;;;;;;25.69;42.06;100124.53;5095022;28;20035;-68
2022/07/30 09:01:35;;;;;;;7.00;1.60;;;;;;;25.62;42.51;100131.28;5094931;28;20035;-67
2022/07/30 09:04:01;;;;;;;6.32;2.22;;;;;;;25.53;42.04;100135.66;5077117;28;20038;-68
2022/07/30 09:06:35;;;;;;;2.00;1.63;;;;;;;25.28;42.40;100132.81;5095562;28;20072;-67
2022/07/30 09:09:00;;;;;;;2.55;1.58;;;;;;;24.94;42.95;100126.91;5094874;28;20366;-68
2022/07/30 09:11:25;;;;;;;4.95;2.75;;;;;;;24.75;43.04;100132.50;5093827;28;20043;-67
2022/07/30 09:13:53;;;;;;;3.65;2.05;;;;;;;24.48;43.41;100129.41;5092957;28;20115;-68
2022/07/30 09:16:22;;;;;;;2.17;1.77;;;;;;;24.22;44.17;100139.53;5094292;28;20038;-72
2022/07/30 09:18:48;;;;;;;2.70;2.00;;;;;;;24.03;44.87;100145.06;5095267;28;20038;-70
2022/07/30 09:21:25;;;;;;;8.20;3.60;;;;;;;23.99;45.69;100138.84;5094534;28;20040;-68
2022/07/30 09:24:02;;;;;;;4.75;1.67;;;;;;;24.04;46.70;100138.63;5095195;28;20032;-69
2022/07/30 09:26:55;;;;;;;5.95;2.00;;;;;;;24.01;47.43;100141.94;5094138;28;20030;-70
2022/07/30 09:29:24;;;;;;;4.75;1.95;;;;;;;23.95;47.83;100138.50;5087699;28;20023;-71
2022/07/30 09:32:04;;;;;;;4.93;2.08;;;;;;;23.86;49.46;100145.72;5221125;22;20514;-79
2022/07/30 09:34:32;;;;;;;2.90;2.17;;;;;;;23.75;50.01;100146.19;5051499;28;20107;-77
2022/07/30 09:36:59;;;;;;;4.70;2.40;;;;;;;23.55;50.48;100145.09;5052513;28;20021;-79
2022/07/30 09:39:27;;;;;;;5.22;2.20;;;;;;;23.39;52.13;100146.47;5051223;28;20033;-80
2022/07/30 09:41:53;;;;;;;2.95;1.83;;;;;;;23.26;52.30;100140.88;5054714;28;20044;-82
2022/07/30 09:44:24;;;;;;;3.42;2.25;;;;;;;23.11;53.22;100149.63;5052120;28;20029;-78
2022/07/30 09:46:50;;;;;;;5.40;3.10;;;;;;;23.01;54.15;100143.63;5052623;28;20477;-79
2022/07/30 09:49:17;;;;;;;4.68;2.20;;;;;;;22.88;54.63;100127.09;5053710;28;20036;-78
2022/07/30 09:51:43;;;;;;;3.25;2.05;;;;;;;22.89;55.03;100133.72;5054101;28;20043;-79
2022/07/30 09:54:09;;;;;;;10.13;2.90;;;;;;;22.85;55.23;100139.13;5053863;28;20037;-79
2022/07/30 09:56:34;;;;;;;3.63;2.42;;;;;;;22.69;54.93;100123.78;5053967;28;20051;-77
2022/07/30 09:59:00;;;;;;;5.22;2.58;;;;;;;22.67;55.59;100129.41;5052314;28;20033;-79
2022/07/30 10:01:27;;;;;;;2.95;2.40;;;;;;;22.59;56.69;100146.13;5052567;28;20119;-77
2022/07/30 10:03:53;;;;;;;4.45;2.45;;;;;;;22.51;57.17;100145.34;5053592;28;20119;-76
2022/07/30 10:06:18;;;;;;;4.97;2.33;;;;;;;22.35;57.60;100146.69;5053604;28;20103;-76
2022/07/30 10:08:49;;;;;;;2.88;2.58;;;;;;;22.17;58.74;100139.09;5052294;28;20140;-77
2022/07/30 10:11:25;;;;;;;4.63;2.90;;;;;;;22.00;59.50;100122.91;5054048;28;20445;-79
2022/07/30 10:14:01;;;;;;;4.75;2.80;;;;;;;21.84;59.51;100130.03;5050773;28;20466;-78
2022/07/30 10:16:41;;;;;;;4.95;3.05;;;;;;;21.67;60.88;100124.75;5035927;28;20363;-78
2022/07/30 10:19:56;;;;;;;6.80;3.45;;;;;;;21.50;61.54;100117.88;5049204;28;20140;-79
2022/07/30 10:22:22;;;;;;;4.85;3.22;;;;;;;21.32;62.50;100121.81;5045925;28;20029;-75
2022/07/30 10:24:49;;;;;;;4.60;3.22;;;;;;;21.16;64.04;100115.13;5053023;28;20359;-79
2022/07/30 10:27:17;;;;;;;4.68;2.58;;;;;;;21.05;64.16;100115.44;5053457;28;20029;-77
2022/07/30 10:29:51;;;;;;;3.55;2.75;;;;;;;20.88;65.61;100120.97;5035163;28;20036;-76
2022/07/30 10:32:17;;;;;;;5.00;3.25;;;;;;;20.71;66.45;100115.59;5016398;28;20484;-76
2022/07/30 10:34:45;;;;;;;5.25;3.58;;;;;;;20.65;67.17;100121.53;5034956;28;20044;-77
2022/07/30 10:37:12;;;;;;;6.18;3.20;;;;;;;20.70;67.48;100108.19;5136924;22;20056;-73
2022/07/30 10:39:54;;;;;;;4.47;2.97;;;;;;;20.68;67.44;100108.78;5070544;28;20117;-72
2022/07/30 10:42:48;;;;;;;4.57;3.03;;;;;;;20.70;68.14;100114.00;5055641;28;20025;-72
2022/07/30 10:45:53;;;;;;;5.35;3.17;;;;;;;20.74;67.99;100112.34;5072369;28;20067;-73
2022/07/30 10:48:19;;;;;;;4.57;3.05;;;;;;;20.90;68.10;100115.34;5073363;28;20412;-71
2022/07/30 10:50:54;;;;;;;4.85;3.33;;;;;;;20.99;68.11;100103.97;5071606;28;20484;-71
2022/07/30 10:53:41;;;;;;;8.93;2.90;;;;;;;21.14;67.82;100104.06;5054895;28;20067;-69
2022/07/30 10:56:19;;;;;;;4.90;2.75;;;;;;;21.38;68.19;100108.69;5073743;28;20020;-70
2022/07/30 10:59:05;;;;;;;4.00;3.10;;;;;;;21.63;67.04;100106.88;5073670;28;20063;-70
2022/07/30 11:01:46;;;;;;;4.78;3.33;;;;;;;21.84;66.19;100112.56;5072003;28;20544;-70
2022/07/30 11:04:25;;;;;;;3.63;3.27;;;;;;;21.97;65.83;100100.00;5072042;28;20499;-72
2022/07/30 11:06:51;;;;;;;6.47;3.70;;;;;;;22.00;65.45;100101.75;5069084;28;20037;-71
2022/07/30 11:09:39;;;;;;;6.00;3.63;;;;;;;21.99;65.10;100103.88;5060394;28;20090;-70
2022/07/30 11:12:06;;;;;;;5.25;4.00;;;;;;;22.04;66.05;100105.84;5069981;28;20377;-70
2022/07/30 11:14:46;;;;;;;3.75;3.28;;;;;;;22.07;65.42;100109.72;5054308;28;20032;-71
2022/07/30 11:17:13;;;;;;;7.47;3.90;;;;;;;21.95;65.42;100100.56;5072584;28;20028;-71
2022/07/30 11:20:06;;;;;;;5.32;4.20;;;;;;;21.99;65.94;100100.97;5072582;28;20024;-71
2022/07/30 11:22:39;;;;;;;4.30;3.72;;;;;;;22.14;66.66;100097.31;5063246;28;20028;-71
2022/07/30 11:25:29;;;;;;;4.50;3.72;;;;;;;22.31;65.11;100094.66;5033832;28;20405;-70
2022/07/30 11:27:55;;;;;;;7.90;4.80;;;;;;;22.40;64.73;100097.00;5051498;28;20041;-69
2022/07/30 11:30:32;;;;;;;4.82;3.83;;;;;;;22.44;64.63;100093.69;5036083;28;20048;-68